Time;durP1;ratioP1;P1;durP2;ratioP2;P2;SDS_P1;SDS_P2;PMS_P1;PMS_P2;Temp;Humidity;BMP_temperature;BMP_pressure;BME280_temperature;BME280_humidity;BME280_pressure;Samples;Min_cycle;Max_cycle;Signal;HPM_P1;HPM_P2
2023/01/06 00:02:01;;;;;;;3.35;2.20;;;;;;;;;;5093760;28;20062;-60
2023/01/06 00:04:28;;;;;;;2.67;2.47;;;;;;;;;;5093228;28;20040;-59
2023/01/06 00:06:54;;;;;;;2.10;1.98;;;;;;;;;;5093664;28;20051;-61
2023/01/06 00:09:20;;;;;;;2.53;2.20;;;;;;;;;;5093760;28;20047;-61
2023/01/06 00:11:47;;;;;;;2.60;2.40;;;;;;;;;;5075768;28;20067;-60
2023/01/06 00:14:13;;;;;;;4.50;2.78;;;;;;;;;;5092924;28;20053;-60
2023/01/06 00:16:39;;;;;;;2.45;2.20;;;;;;;;;;5075439;28;20045;-60
2023/01/06 00:19:06;;;;;;;3.55;2.95;;;;;;;;;;5093535;28;20519;-59
2023/01/06 00:21:32;;;;;;;3.63;2.83;;;;;;;;;;5093453;28;20494;-60
2023/01/06 00:23:59;;;;;;;2.90;2.63;;;;;;;;;;5093396;28;20467;-60
2023/01/06 00:26:25;;;;;;;4.47;3.10;;;;;;;;;;5092806;28;20047;-60
2023/01/06 00:28:55;;;;;;;4.03;2.85;;;;;;;;;;5075313;28;20484;-59
2023/01/06 00:31:24;;;;;;;2.88;2.67;;;;;;;;;;5093525;28;20040;-60
2023/01/06 00:33:54;;;;;;;2.80;2.60;;;;;;;;;;5093318;28;20511;-59
2023/01/06 00:36:20;;;;;;;3.58;2.95;;;;;;;;;;5092502;28;20114;-59
2023/01/06 00:38:50;;;;;;;3.10;2.80;;;;;;;;;;5058835;28;20044;-59
2023/01/06 00:44:02;;;;;;;2.72;2.53;;;;;;;;;;5093069;28;20036;-60
2023/01/06 00:46:29;;;;;;;2.50;2.30;;;;;;;;;;5092766;28;20046;-60
2023/01/06 00:48:57;;;;;;;2.45;2.25;;;;;;;;;;5092956;28;20051;-59
2023/01/06 00:51:37;;;;;;;2.58;2.38;;;;;;;;;;5093464;28;20044;-58
2023/01/06 00:54:05;;;;;;;2.50;2.30;;;;;;;;;;5074579;28;20119;-59
2023/01/06 00:56:34;;;;;;;3.45;2.42;;;;;;;;;;5092758;28;20063;-59
2023/01/06 00:59:01;;;;;;;2.78;2.38;;;;;;;;;;5074816;28;20043;-56
2023/01/06 01:01:27;;;;;;;1.52;1.42;;;;;;;;;;5074980;28;20146;-57
2023/01/06 01:03:54;;;;;;;1.58;1.48;;;;;;;;;;5092787;28;20407;-58
2023/01/06 01:06:20;;;;;;;1.55;1.45;;;;;;;;;;5091791;28;20087;-59
2023/01/06 01:08:51;;;;;;;1.10;1.00;;;;;;;;;;5074842;28;20048;-59
2023/01/06 01:14:06;;;;;;;1.05;1.00;;;;;;;;;;5092376;28;20436;-59
2023/01/06 01:16:32;;;;;;;0.80;0.80;;;;;;;;;;5074608;28;20036;-60
2023/01/06 01:18:59;;;;;;;0.63;0.63;;;;;;;;;;5057754;28;20066;-60
2023/01/06 01:21:25;;;;;;;0.70;0.70;;;;;;;;;;5092572;28;20085;-60
2023/01/06 01:23:52;;;;;;;0.82;0.60;;;;;;;;;;5092450;28;20032;-59
2023/01/06 01:26:18;;;;;;;0.60;0.55;;;;;;;;;;5091796;28;20507;-59
2023/01/06 01:28:44;;;;;;;0.80;0.60;;;;;;;;;;5092288;28;20096;-59
2023/01/06 01:31:12;;;;;;;0.60;0.60;;;;;;;;;;5074263;28;20147;-59
2023/01/06 01:33:41;;;;;;;1.65;0.80;;;;;;;;;;5092222;28;20044;-59
2023/01/06 01:36:09;;;;;;;0.98;0.98;;;;;;;;;;5091863;28;20082;-60
2023/01/06 01:38:35;;;;;;;1.40;1.30;;;;;;;;;;5092113;28;20055;-59
2023/01/06 01:41:02;;;;;;;1.50;1.40;;;;;;;;;;5092165;28;20520;-59
2023/01/06 01:43:43;;;;;;;1.60;1.50;;;;;;;;;;5073957;28;20094;-59
2023/01/06 01:46:10;;;;;;;1.70;1.60;;;;;;;;;;5091554;28;20051;-60
2023/01/06 01:48:37;;;;;;;1.42;1.30;;;;;;;;;;5074011;28;20044;-59
2023/01/06 01:51:06;;;;;;;1.30;1.20;;;;;;;;;;5074229;28;20059;-59
2023/01/06 01:53:38;;;;;;;1.40;1.30;;;;;;;;;;5074212;28;20065;-60
2023/01/06 01:56:06;;;;;;;1.40;1.30;;;;;;;;;;5073640;28;20579;-59
2023/01/06 01:58:35;;;;;;;1.35;1.25;;;;;;;;;;5074029;28;20040;-60
2023/01/06 02:01:02;;;;;;;1.63;1.10;;;;;;;;;;5073898;28;20048;-61
2023/01/06 02:03:31;;;;;;;2.25;1.00;;;;;;;;;;5092400;28;20393;-59
2023/01/06 02:06:04;;;;;;;1.00;1.00;;;;;;;;;;5091708;28;20036;-61
2023/01/06 02:08:33;;;;;;;0.80;0.80;;;;;;;;;;5092381;28;20550;-61
2023/01/06 02:11:00;;;;;;;1.38;0.90;;;;;;;;;;5091859;28;20047;-61
2023/01/06 02:13:26;;;;;;;0.70;0.70;;;;;;;;;;5091878;28;20040;-62
2023/01/06 02:15:56;;;;;;;2.60;0.80;;;;;;;;;;5073140;28;20040;-61
2023/01/06 02:18:40;;;;;;;1.08;0.65;;;;;;;;;;5094019;28;20119;-64
2023/01/06 02:21:16;;;;;;;0.52;0.52;;;;;;;;;;5077908;28;20040;-61
2023/01/06 02:24:05;;;;;;;1.08;0.70;;;;;;;;;;5077613;28;20127;-62
2023/01/06 02:26:54;;;;;;;1.15;0.50;;;;;;;;;;5095655;28;20047;-62
2023/01/06 02:29:24;;;;;;;0.85;0.60;;;;;;;;;;5095508;28;20064;-62
2023/01/06 02:31:57;;;;;;;0.68;0.50;;;;;;;;;;5077216;28;20152;-61
2023/01/06 02:34:40;;;;;;;1.27;0.70;;;;;;;;;;5076680;28;20044;-62
2023/01/06 02:37:13;;;;;;;2.28;0.70;;;;;;;;;;5077129;28;20051;-61
2023/01/06 02:40:00;;;;;;;0.85;0.70;;;;;;;;;;5077181;28;20471;-62
2023/01/06 02:42:41;;;;;;;1.58;0.60;;;;;;;;;;5078132;28;20118;-59
2023/01/06 02:45:08;;;;;;;1.52;0.68;;;;;;;;;;5084424;28;20131;-60
2023/01/06 02:47:34;;;;;;;2.15;0.75;;;;;;;;;;5087287;28;20048;-60
2023/01/06 02:50:15;;;;;;;1.48;0.68;;;;;;;;;;5098003;28;20078;-59
2023/01/06 02:52:44;;;;;;;1.73;0.60;;;;;;;;;;5095126;28;20040;-60
2023/01/06 02:55:25;;;;;;;1.17;0.60;;;;;;;;;;5076359;28;20064;-60
2023/01/06 02:58:14;;;;;;;2.13;0.80;;;;;;;;;;5077156;28;20101;-61
2023/01/06 03:00:48;;;;;;;1.58;0.70;;;;;;;;;;5095101;28;20465;-61
2023/01/06 03:03:18;;;;;;;0.80;0.80;;;;;;;;;;5095093;28;20032;-60
2023/01/06 03:05:48;;;;;;;0.60;0.60;;;;;;;;;;5076198;28;20059;-61
2023/01/06 03:08:17;;;;;;;1.27;0.60;;;;;;;;;;5076792;28;20070;-60
2023/01/06 03:10:46;;;;;;;1.65;0.77;;;;;;;;;;5094862;28;20048;-60
2023/01/06 03:13:32;;;;;;;0.82;0.63;;;;;;;;;;5076595;28;20047;-60
2023/01/06 03:15:59;;;;;;;1.40;1.30;;;;;;;;;;5076046;28;20044;-60
2023/01/06 03:18:25;;;;;;;2.45;0.70;;;;;;;;;;5076612;28;20051;-60
2023/01/06 03:20:56;;;;;;;1.80;0.70;;;;;;;;;;5094491;28;20033;-60
2023/01/06 03:23:22;;;;;;;0.65;0.50;;;;;;;;;;5094682;28;20094;-60
2023/01/06 03:25:49;;;;;;;1.50;0.75;;;;;;;;;;5093846;28;20044;-60
2023/01/06 03:28:15;;;;;;;1.65;0.60;;;;;;;;;;5093986;28;20059;-60
2023/01/06 03:30:59;;;;;;;1.35;0.60;;;;;;;;;;5094344;28;20074;-60
2023/01/06 03:33:31;;;;;;;1.38;0.60;;;;;;;;;;5094437;28;20048;-60
2023/01/06 03:35:58;;;;;;;1.88;0.55;;;;;;;;;;5075545;28;20093;-61
2023/01/06 03:38:44;;;;;;;1.42;0.43;;;;;;;;;;5076373;28;20623;-58
2023/01/06 03:41:20;;;;;;;0.50;0.47;;;;;;;;;;5094069;28;20040;-61
2023/01/06 03:43:57;;;;;;;0.30;0.30;;;;;;;;;;5076012;28;20040;-61
2023/01/06 03:46:33;;;;;;;0.50;0.50;;;;;;;;;;5058847;28;20131;-61
2023/01/06 03:49:06;;;;;;;0.30;0.30;;;;;;;;;;5075924;28;20043;-61
2023/01/06 03:51:36;;;;;;;0.38;0.38;;;;;;;;;;5076079;28;20089;-59
2023/01/06 03:54:04;;;;;;;0.77;0.60;;;;;;;;;;5075887;28;20557;-60
2023/01/06 03:56:45;;;;;;;0.40;0.40;;;;;;;;;;5076687;28;20075;-58
2023/01/06 03:59:15;;;;;;;0.40;0.40;;;;;;;;;;5076201;28;20043;-58
2023/01/06 04:01:42;;;;;;;0.52;0.50;;;;;;;;;;5076498;28;20093;-59
2023/01/06 04:04:10;;;;;;;0.50;0.50;;;;;;;;;;5075357;28;20072;-58
2023/01/06 04:06:37;;;;;;;0.40;0.40;;;;;;;;;;5094518;28;20064;-59
2023/01/06 04:09:04;;;;;;;0.70;0.40;;;;;;;;;;5076607;28;20047;-59
2023/01/06 04:14:19;;;;;;;1.35;0.90;;;;;;;;;;5076292;28;20131;-60
2023/01/06 04:16:45;;;;;;;0.40;0.40;;;;;;;;;;5077521;28;20040;-60
2023/01/06 04:19:12;;;;;;;0.50;0.50;;;;;;;;;;5095387;28;20036;-60
2023/01/06 04:21:38;;;;;;;2.05;0.70;;;;;;;;;;5094592;28;20044;-59
2023/01/06 04:24:05;;;;;;;1.17;0.60;;;;;;;;;;5075260;28;20048;-59
2023/01/06 04:26:34;;;;;;;0.30;0.30;;;;;;;;;;5075770;28;20496;-60
2023/01/06 04:29:01;;;;;;;0.45;0.45;;;;;;;;;;5093711;28;20032;-61
2023/01/06 04:31:28;;;;;;;0.73;0.60;;;;;;;;;;5076337;28;20101;-60
2023/01/06 04:33:54;;;;;;;1.83;0.80;;;;;;;;;;5094590;28;20131;-60
2023/01/06 04:36:21;;;;;;;0.98;0.60;;;;;;;;;;5076174;28;20036;-60
2023/01/06 04:38:51;;;;;;;0.90;0.63;;;;;;;;;;5076502;28;20411;-60
2023/01/06 04:41:17;;;;;;;0.40;0.40;;;;;;;;;;5093568;28;20131;-60
2023/01/06 04:43:44;;;;;;;0.40;0.40;;;;;;;;;;5093101;28;20067;-60
2023/01/06 04:46:10;;;;;;;0.50;0.50;;;;;;;;;;5092422;28;20040;-60
2023/01/06 04:48:36;;;;;;;0.77;0.60;;;;;;;;;;5093053;28;20047;-60
2023/01/06 04:51:04;;;;;;;0.75;0.50;;;;;;;;;;5092955;28;20040;-60
2023/01/06 04:53:34;;;;;;;0.63;0.40;;;;;;;;;;5093191;28;20051;-60
2023/01/06 04:56:01;;;;;;;0.40;0.40;;;;;;;;;;5092995;28;20056;-60
2023/01/06 04:58:28;;;;;;;2.00;0.40;;;;;;;;;;5075283;28;20054;-60
2023/01/06 05:03:37;;;;;;;1.05;0.50;;;;;;;;;;4931400;29;20059;-58
2023/01/06 05:06:05;;;;;;;0.40;0.40;;;;;;;;;;4934911;29;20103;-58
2023/01/06 05:08:31;;;;;;;0.82;0.60;;;;;;;;;;4935288;29;20051;-60
2023/01/06 05:10:58;;;;;;;0.60;0.60;;;;;;;;;;4935395;29;20071;-58
2023/01/06 05:13:25;;;;;;;0.60;0.57;;;;;;;;;;4935201;29;20083;-58
2023/01/06 05:15:51;;;;;;;1.00;0.60;;;;;;;;;;4934581;29;20079;-59
2023/01/06 05:18:17;;;;;;;0.60;0.60;;;;;;;;;;4939012;29;20092;-58
2023/01/06 05:20:44;;;;;;;1.25;0.70;;;;;;;;;;4943104;29;20452;-59
2023/01/06 05:23:10;;;;;;;2.40;0.98;;;;;;;;;;4940476;29;20381;-58
2023/01/06 05:25:36;;;;;;;1.15;0.70;;;;;;;;;;4933373;29;20075;-60
2023/01/06 05:28:03;;;;;;;1.25;0.60;;;;;;;;;;4935078;29;20099;-59
2023/01/06 05:30:29;;;;;;;1.15;0.70;;;;;;;;;;4935101;29;20043;-58
2023/01/06 05:32:55;;;;;;;0.63;0.60;;;;;;;;;;4935294;29;20621;-60
2023/01/06 05:35:22;;;;;;;0.77;0.60;;;;;;;;;;4934376;29;20456;-59
2023/01/06 05:37:48;;;;;;;1.05;0.60;;;;;;;;;;4934712;29;20123;-58
2023/01/06 05:40:14;;;;;;;0.63;0.63;;;;;;;;;;4933665;29;20107;-58
2023/01/06 05:42:41;;;;;;;0.80;0.80;;;;;;;;;;4934829;29;20048;-58
2023/01/06 05:45:07;;;;;;;0.82;0.80;;;;;;;;;;4934349;29;20040;-58
2023/01/06 05:47:34;;;;;;;1.20;1.10;;;;;;;;;;4934918;29;20107;-58
2023/01/06 05:50:00;;;;;;;1.20;1.05;;;;;;;;;;4934835;29;20090;-58
2023/01/06 05:52:26;;;;;;;1.13;1.02;;;;;;;;;;4937101;29;20071;-60
2023/01/06 05:54:53;;;;;;;1.77;1.25;;;;;;;;;;4938269;29;20071;-60
2023/01/06 05:57:19;;;;;;;2.47;1.27;;;;;;;;;;4938792;29;20535;-60
2023/01/06 05:59:45;;;;;;;2.60;0.98;;;;;;;;;;4937526;29;20048;-60
2023/01/06 06:02:12;;;;;;;3.00;0.88;;;;;;;;;;4937294;29;20082;-59
2023/01/06 06:04:38;;;;;;;3.28;0.80;;;;;;;;;;4938477;29;20110;-60
2023/01/06 06:07:04;;;;;;;2.42;0.90;;;;;;;;;;4938783;29;20036;-60
2023/01/06 06:09:31;;;;;;;1.17;0.70;;;;;;;;;;4938683;29;20103;-61
2023/01/06 06:11:57;;;;;;;2.03;0.85;;;;;;;;;;4921631;29;20052;-60
2023/01/06 06:14:25;;;;;;;0.55;0.55;;;;;;;;;;4937965;29;20086;-60
2023/01/06 06:16:52;;;;;;;1.90;0.80;;;;;;;;;;4938489;29;20047;-60
2023/01/06 06:19:18;;;;;;;1.73;0.52;;;;;;;;;;4938702;29;20053;-60
2023/01/06 06:21:45;;;;;;;0.95;0.60;;;;;;;;;;4938201;29;20565;-60
2023/01/06 06:24:11;;;;;;;2.28;0.70;;;;;;;;;;4937717;29;20047;-62
2023/01/06 06:26:37;;;;;;;1.55;0.80;;;;;;;;;;4938241;29;20157;-61
2023/01/06 06:29:04;;;;;;;1.10;0.90;;;;;;;;;;4938310;29;20142;-61
2023/01/06 06:31:31;;;;;;;1.33;0.88;;;;;;;;;;4936975;29;20098;-61
2023/01/06 06:33:58;;;;;;;2.13;0.70;;;;;;;;;;4938215;29;20135;-60
2023/01/06 06:36:25;;;;;;;1.17;0.70;;;;;;;;;;4937413;29;20126;-61
2023/01/06 06:38:52;;;;;;;1.80;0.73;;;;;;;;;;4938142;29;20056;-59
2023/01/06 06:41:19;;;;;;;0.82;0.60;;;;;;;;;;4937924;29;20044;-60
2023/01/06 06:43:46;;;;;;;0.80;0.70;;;;;;;;;;4938000;29;20044;-60
2023/01/06 06:46:13;;;;;;;1.20;0.68;;;;;;;;;;4937431;29;20484;-62
2023/01/06 06:48:39;;;;;;;1.33;0.80;;;;;;;;;;4937900;29;20130;-62
2023/01/06 06:51:07;;;;;;;1.67;0.73;;;;;;;;;;4937714;29;20127;-67
2023/01/06 06:53:33;;;;;;;1.20;0.73;;;;;;;;;;4937862;29;20111;-60
2023/01/06 06:56:00;;;;;;;2.15;0.80;;;;;;;;;;4937371;29;20082;-59
2023/01/06 06:58:27;;;;;;;2.15;0.80;;;;;;;;;;4936690;29;20051;-61
2023/01/06 07:00:53;;;;;;;3.58;0.95;;;;;;;;;;4936275;29;20090;-61
2023/01/06 07:03:20;;;;;;;2.10;0.88;;;;;;;;;;4937251;29;20071;-61
2023/01/06 07:05:46;;;;;;;4.13;0.80;;;;;;;;;;4936867;29;20052;-61
2023/01/06 07:08:13;;;;;;;3.47;0.85;;;;;;;;;;4937365;29;20071;-61
2023/01/06 07:10:39;;;;;;;3.05;0.82;;;;;;;;;;4937718;29;20120;-60
2023/01/06 07:13:05;;;;;;;2.03;0.70;;;;;;;;;;4937117;29;20563;-60
2023/01/06 07:15:32;;;;;;;2.22;0.90;;;;;;;;;;4936848;29;20126;-60
2023/01/06 07:18:02;;;;;;;0.68;0.52;;;;;;;;;;4937425;29;20054;-60
2023/01/06 07:20:29;;;;;;;1.25;0.65;;;;;;;;;;4937048;29;20441;-60
2023/01/06 07:22:56;;;;;;;0.75;0.75;;;;;;;;;;4937394;29;20099;-60
2023/01/06 07:25:22;;;;;;;1.15;0.50;;;;;;;;;;4936936;29;20064;-60
2023/01/06 07:27:53;;;;;;;1.52;0.70;;;;;;;;;;4937125;29;20036;-60
2023/01/06 07:30:20;;;;;;;1.73;0.50;;;;;;;;;;4936875;29;20048;-60
2023/01/06 07:32:46;;;;;;;1.15;0.68;;;;;;;;;;4936912;29;20127;-60
2023/01/06 07:35:12;;;;;;;0.82;0.70;;;;;;;;;;4936335;29;20075;-59
2023/01/06 07:37:39;;;;;;;4.13;1.35;;;;;;;;;;4936981;29;20078;-59
2023/01/06 07:40:05;;;;;;;1.50;0.73;;;;;;;;;;4936971;29;20082;-59
2023/01/06 07:42:31;;;;;;;2.40;0.77;;;;;;;;;;4937423;29;20078;-61
2023/01/06 07:44:58;;;;;;;1.58;0.70;;;;;;;;;;4936555;29;20090;-62
2023/01/06 07:47:24;;;;;;;1.70;0.90;;;;;;;;;;4937291;29;20119;-60
2023/01/06 07:49:51;;;;;;;2.97;0.70;;;;;;;;;;4936884;29;20070;-61
2023/01/06 07:52:17;;;;;;;2.22;0.90;;;;;;;;;;4936507;29;20094;-61
2023/01/06 07:54:43;;;;;;;1.00;0.90;;;;;;;;;;4936119;29;20054;-60
2023/01/06 07:57:09;;;;;;;1.48;0.85;;;;;;;;;;4936687;29;20096;-61
2023/01/06 07:59:36;;;;;;;2.03;0.90;;;;;;;;;;4936745;29;20461;-62
2023/01/06 08:02:02;;;;;;;0.98;0.80;;;;;;;;;;4936110;29;20051;-61
2023/01/06 08:04:29;;;;;;;1.85;0.80;;;;;;;;;;4918879;29;20044;-61
2023/01/06 08:06:55;;;;;;;2.40;0.80;;;;;;;;;;4936413;29;20070;-61
2023/01/06 08:09:21;;;;;;;2.33;0.85;;;;;;;;;;4936382;29;20044;-60
2023/01/06 08:11:48;;;;;;;3.42;0.82;;;;;;;;;;4936219;29;20075;-60
2023/01/06 08:14:14;;;;;;;1.98;0.70;;;;;;;;;;4935534;29;20044;-61
2023/01/06 08:16:40;;;;;;;1.50;0.90;;;;;;;;;;4935400;29;20071;-60
2023/01/06 08:19:06;;;;;;;2.45;0.80;;;;;;;;;;4935875;29;20067;-61
2023/01/06 08:21:33;;;;;;;2.28;1.05;;;;;;;;;;4935929;29;20456;-61
2023/01/06 08:23:59;;;;;;;1.92;0.82;;;;;;;;;;4934776;29;20512;-61
2023/01/06 08:26:25;;;;;;;2.75;1.10;;;;;;;;;;4935771;29;20040;-61
2023/01/06 08:28:52;;;;;;;7.75;1.33;;;;;;;;;;4935968;29;20445;-61
2023/01/06 08:31:19;;;;;;;1.50;1.10;;;;;;;;;;4935994;29;20107;-61
2023/01/06 08:33:46;;;;;;;1.02;0.82;;;;;;;;;;4935692;29;20080;-62
2023/01/06 08:36:14;;;;;;;1.17;0.90;;;;;;;;;;4934217;29;20051;-60
2023/01/06 08:38:41;;;;;;;2.58;1.17;;;;;;;;;;4935149;29;20142;-59
2023/01/06 08:41:07;;;;;;;2.35;0.93;;;;;;;;;;4936021;29;20040;-60
2023/01/06 08:43:34;;;;;;;2.67;1.00;;;;;;;;;;4935454;29;20040;-62
2023/01/06 08:46:02;;;;;;;1.83;0.85;;;;;;;;;;4935633;29;20103;-59
2023/01/06 08:48:29;;;;;;;3.17;1.02;;;;;;;;;;4935739;29;20432;-59
2023/01/06 08:51:00;;;;;;;1.77;1.10;;;;;;;;;;4936004;29;20196;-60
2023/01/06 08:53:27;;;;;;;6.22;1.42;;;;;;;;;;4935968;29;20134;-60
2023/01/06 08:55:53;;;;;;;1.75;1.20;;;;;;;;;;4935452;29;20048;-60
2023/01/06 08:58:19;;;;;;;2.05;1.23;;;;;;;;;;4936053;29;20101;-60
2023/01/06 09:00:46;;;;;;;3.13;0.93;;;;;;;;;;4935283;29;20040;-61
2023/01/06 09:03:12;;;;;;;2.03;1.05;;;;;;;;;;4934314;29;20055;-60
2023/01/06 09:05:38;;;;;;;4.72;1.10;;;;;;;;;;4935011;29;20124;-60
2023/01/06 09:08:05;;;;;;;1.95;1.10;;;;;;;;;;4935946;29;20051;-61
2023/01/06 09:10:31;;;;;;;2.20;1.10;;;;;;;;;;4935612;29;20087;-61
2023/01/06 09:12:57;;;;;;;1.88;1.10;;;;;;;;;;4935200;29;20201;-61
2023/01/06 09:15:24;;;;;;;3.67;1.40;;;;;;;;;;4934557;29;20489;-60
2023/01/06 09:17:50;;;;;;;2.03;1.40;;;;;;;;;;4934104;29;20114;-61
2023/01/06 09:20:16;;;;;;;3.10;1.15;;;;;;;;;;4943347;29;20056;-62
2023/01/06 09:22:43;;;;;;;3.00;1.23;;;;;;;;;;4942812;29;20047;-62
2023/01/06 09:25:10;;;;;;;2.70;1.38;;;;;;;;;;4938210;29;20052;-60
2023/01/06 09:27:36;;;;;;;2.20;1.45;;;;;;;;;;4935068;29;20051;-59
2023/01/06 09:30:04;;;;;;;2.42;1.23;;;;;;;;;;4936204;29;20051;-62
2023/01/06 09:32:34;;;;;;;3.65;1.60;;;;;;;;;;4935709;29;20061;-62
2023/01/06 09:35:01;;;;;;;2.17;1.48;;;;;;;;;;4935708;29;20091;-61
2023/01/06 09:37:27;;;;;;;2.33;1.70;;;;;;;;;;4936970;29;20054;-61
2023/01/06 09:39:54;;;;;;;4.10;1.70;;;;;;;;;;4935281;29;20056;-61
2023/01/06 09:42:35;;;;;;;2.38;1.23;;;;;;;;;;4935871;29;20044;-61
2023/01/06 09:45:18;;;;;;;2.88;1.40;;;;;;;;;;4940992;29;20124;-60
2023/01/06 09:47:56;;;;;;;1.60;1.20;;;;;;;;;;4941467;29;20564;-60
2023/01/06 09:50:25;;;;;;;1.83;1.55;;;;;;;;;;4941401;29;20048;-59
2023/01/06 09:52:54;;;;;;;1.15;1.10;;;;;;;;;;4940084;29;20048;-59
2023/01/06 09:55:29;;;;;;;3.63;1.45;;;;;;;;;;4939596;29;20095;-60
2023/01/06 09:57:59;;;;;;;3.00;1.23;;;;;;;;;;4940088;29;20445;-60
2023/01/06 10:00:42;;;;;;;3.45;1.40;;;;;;;;;;4937728;29;20103;-60
2023/01/06 10:03:16;;;;;;;2.35;1.20;;;;;;;;;;4938695;29;20488;-61
2023/01/06 10:05:45;;;;;;;2.33;1.30;;;;;;;;;;4936697;29;20048;-62
2023/01/06 10:08:14;;;;;;;2.72;1.15;;;;;;;;;;4939433;29;20138;-61
2023/01/06 10:10:53;;;;;;;1.60;1.50;;;;;;;;;;4937046;29;20123;-61
2023/01/06 10:13:37;;;;;;;3.72;1.02;;;;;;;;;;4935244;29;20075;-61
2023/01/06 10:16:03;;;;;;;3.22;1.40;;;;;;;;;;4935076;29;20075;-61
2023/01/06 10:18:33;;;;;;;1.48;1.20;;;;;;;;;;4936492;29;20039;-61
2023/01/06 10:21:13;;;;;;;1.83;1.13;;;;;;;;;;4936296;29;20043;-61
2023/01/06 10:23:45;;;;;;;5.35;1.45;;;;;;;;;;4935133;29;20067;-62
2023/01/06 10:26:13;;;;;;;3.35;1.33;;;;;;;;;;4935342;29;20047;-61
2023/01/06 10:28:41;;;;;;;4.47;1.20;;;;;;;;;;4936266;29;20039;-61
2023/01/06 10:31:14;;;;;;;2.13;1.10;;;;;;;;;;4935905;29;20077;-62
2023/01/06 10:33:42;;;;;;;2.20;1.25;;;;;;;;;;4935165;29;20102;-59
2023/01/06 10:36:13;;;;;;;1.45;1.23;;;;;;;;;;4934430;29;20056;-60
2023/01/06 10:38:41;;;;;;;3.42;1.17;;;;;;;;;;4936344;29;20118;-60
2023/01/06 10:41:28;;;;;;;1.90;1.08;;;;;;;;;;4938889;29;20082;-62
2023/01/06 10:43:55;;;;;;;2.30;0.90;;;;;;;;;;4934496;29;20048;-59
2023/01/06 10:46:24;;;;;;;4.28;1.23;;;;;;;;;;4937694;29;20044;-60
2023/01/06 10:48:51;;;;;;;5.88;1.20;;;;;;;;;;4937682;29;20048;-62
2023/01/06 10:51:30;;;;;;;3.40;1.25;;;;;;;;;;4937415;29;20576;-60
2023/01/06 10:53:56;;;;;;;1.48;1.23;;;;;;;;;;4937811;29;20095;-60
2023/01/06 10:56:23;;;;;;;1.77;1.13;;;;;;;;;;4937282;29;20419;-59
2023/01/06 10:58:55;;;;;;;3.63;1.20;;;;;;;;;;4937652;29;20048;-60
2023/01/06 11:01:23;;;;;;;2.08;1.00;;;;;;;;;;4937400;29;20461;-61
2023/01/06 11:04:10;;;;;;;2.67;1.35;;;;;;;;;;4937450;29;20474;-61
2023/01/06 11:06:50;;;;;;;1.30;0.80;;;;;;;;;;4936259;29;20480;-61
2023/01/06 11:09:26;;;;;;;1.85;1.00;;;;;;;;;;4937357;29;20067;-61
2023/01/06 11:11:54;;;;;;;0.90;0.90;;;;;;;;;;4937321;29;20068;-61
2023/01/06 11:14:23;;;;;;;2.25;1.13;;;;;;;;;;4935480;29;20489;-61
2023/01/06 11:16:55;;;;;;;1.30;1.00;;;;;;;;;;4937262;29;20048;-60
2023/01/06 11:19:25;;;;;;;2.35;1.10;;;;;;;;;;4937283;29;20079;-61
2023/01/06 11:21:51;;;;;;;1.25;1.00;;;;;;;;;;4937053;29;20050;-62
2023/01/06 11:24:22;;;;;;;1.40;1.08;;;;;;;;;;4936665;29;20040;-61
2023/01/06 11:26:52;;;;;;;1.42;1.00;;;;;;;;;;4936865;29;20072;-60
2023/01/06 11:29:29;;;;;;;1.88;0.80;;;;;;;;;;4937001;29;20048;-60
2023/01/06 11:31:58;;;;;;;2.63;1.05;;;;;;;;;;4937055;29;20107;-61
2023/01/06 11:34:26;;;;;;;2.22;1.20;;;;;;;;;;4936530;29;20602;-61
2023/01/06 11:36:52;;;;;;;1.65;1.00;;;;;;;;;;4936965;29;20100;-61
2023/01/06 11:39:23;;;;;;;2.40;1.42;;;;;;;;;;4936972;29;20747;-61
2023/01/06 11:41:50;;;;;;;0.82;0.82;;;;;;;;;;4936798;29;20036;-62
2023/01/06 11:44:16;;;;;;;1.70;1.60;;;;;;;;;;4936216;29;20044;-61
2023/01/06 11:46:47;;;;;;;1.52;1.10;;;;;;;;;;4936705;29;20047;-61
2023/01/06 11:49:19;;;;;;;1.35;0.90;;;;;;;;;;4936562;29;20107;-61
2023/01/06 11:51:47;;;;;;;3.28;1.42;;;;;;;;;;4936391;29;20496;-61
2023/01/06 11:54:25;;;;;;;1.23;1.13;;;;;;;;;;4936029;29;20055;-61
2023/01/06 11:56:58;;;;;;;1.75;1.65;;;;;;;;;;4936638;29;20517;-61
2023/01/06 11:59:26;;;;;;;1.20;1.10;;;;;;;;;;4936580;29;20556;-61
2023/01/06 12:01:56;;;;;;;2.25;0.80;;;;;;;;;;4936282;29;20111;-61
2023/01/06 12:04:30;;;;;;;1.02;0.95;;;;;;;;;;4935931;29;20051;-61
2023/01/06 12:07:06;;;;;;;3.00;0.93;;;;;;;;;;4935315;29;20082;-61
2023/01/06 12:09:35;;;;;;;1.92;1.08;;;;;;;;;;4936482;29;20044;-61
2023/01/06 12:12:08;;;;;;;1.10;1.00;;;;;;;;;;4935289;29;20102;-61
2023/01/06 12:14:36;;;;;;;2.30;1.10;;;;;;;;;;4935916;29;20435;-61
2023/01/06 12:17:27;;;;;;;2.13;0.93;;;;;;;;;;4936302;29;20075;-61
2023/01/06 12:20:00;;;;;;;1.98;1.17;;;;;;;;;;4935482;29;20420;-61
2023/01/06 12:22:40;;;;;;;1.95;0.93;;;;;;;;;;4935997;29;20051;-61
2023/01/06 12:25:21;;;;;;;1.55;1.38;;;;;;;;;;4935482;29;20075;-62
2023/01/06 12:27:50;;;;;;;1.20;1.10;;;;;;;;;;4936056;29;20071;-61
2023/01/06 12:30:35;;;;;;;2.80;1.20;;;;;;;;;;4935948;29;20043;-62
2023/01/06 12:33:16;;;;;;;1.17;0.77;;;;;;;;;;4935960;29;20313;-62
2023/01/06 12:35:44;;;;;;;3.78;1.00;;;;;;;;;;4935200;29;20052;-61
2023/01/06 12:38:29;;;;;;;0.98;0.88;;;;;;;;;;4934650;29;20040;-62
2023/01/06 12:41:01;;;;;;;1.30;1.00;;;;;;;;;;4935908;29;20062;-62
2023/01/06 12:43:29;;;;;;;0.77;0.70;;;;;;;;;;4935675;29;20071;-63
2023/01/06 12:46:08;;;;;;;1.02;1.00;;;;;;;;;;4933853;29;20217;-63
2023/01/06 12:48:34;;;;;;;1.23;1.17;;;;;;;;;;4935793;29;20494;-61
2023/01/06 12:51:14;;;;;;;1.13;1.00;;;;;;;;;;4935678;29;20071;-61
2023/01/06 12:53:42;;;;;;;2.58;1.45;;;;;;;;;;4935641;29;20054;-60
2023/01/06 12:56:27;;;;;;;3.17;1.33;;;;;;;;;;4934967;29;20099;-61
2023/01/06 12:58:53;;;;;;;7.95;4.40;;;;;;;;;;4935551;29;20079;-61
2023/01/06 13:01:28;;;;;;;2.22;1.60;;;;;;;;;;4934822;29;20056;-60
2023/01/06 13:04:04;;;;;;;2.72;1.65;;;;;;;;;;4935560;29;20111;-62
2023/01/06 13:06:46;;;;;;;6.05;1.58;;;;;;;;;;4935402;29;20122;-62
2023/01/06 13:09:39;;;;;;;3.00;1.70;;;;;;;;;;4934621;29;20469;-60
2023/01/06 13:12:18;;;;;;;2.13;1.45;;;;;;;;;;4936000;29;20081;-59
2023/01/06 13:14:48;;;;;;;1.50;0.90;;;;;;;;;;4935400;29;20146;-60
2023/01/06 13:17:24;;;;;;;2.25;1.50;;;;;;;;;;4940062;29;20412;-62
2023/01/06 13:19:54;;;;;;;1.73;1.23;;;;;;;;;;4942956;29;20079;-61
2023/01/06 13:22:20;;;;;;;2.10;1.40;;;;;;;;;;4939854;29;20051;-61
2023/01/06 13:24:56;;;;;;;4.00;2.35;;;;;;;;;;4935036;29;20044;-60
2023/01/06 13:27:32;;;;;;;6.40;3.70;;;;;;;;;;4935495;29;20048;-60
2023/01/06 13:30:18;;;;;;;3.30;2.10;;;;;;;;;;4934574;29;20047;-61
2023/01/06 13:32:58;;;;;;;3.75;1.73;;;;;;;;;;4939327;29;20063;-60
2023/01/06 13:35:43;;;;;;;14.45;5.40;;;;;;;;;;4940181;29;20059;-61
2023/01/06 13:38:10;;;;;;;3.58;2.47;;;;;;;;;;4940769;29;20368;-61
2023/01/06 13:40:38;;;;;;;7.85;3.38;;;;;;;;;;4941068;29;20093;-61
2023/01/06 13:43:05;;;;;;;5.50;2.47;;;;;;;;;;4942173;29;20052;-61
2023/01/06 13:45:34;;;;;;;2.92;1.85;;;;;;;;;;4940212;29;20052;-61
2023/01/06 13:48:07;;;;;;;3.28;1.90;;;;;;;;;;4941556;29;20055;-61
2023/01/06 13:50:35;;;;;;;5.40;3.42;;;;;;;;;;4941464;29;20055;-60
2023/01/06 13:53:02;;;;;;;1.42;1.30;;;;;;;;;;4940072;29;20051;-61
2023/01/06 13:55:32;;;;;;;2.88;1.63;;;;;;;;;;4941521;29;20043;-60
2023/01/06 13:58:19;;;;;;;1.10;1.00;;;;;;;;;;4940062;29;20075;-62
2023/01/06 14:01:02;;;;;;;2.95;1.10;;;;;;;;;;4940691;29;20452;-62
2023/01/06 14:03:29;;;;;;;1.88;0.90;;;;;;;;;;4940092;29;20058;-60
2023/01/06 14:05:56;;;;;;;1.27;0.98;;;;;;;;;;4938891;29;20040;-61
2023/01/06 14:08:24;;;;;;;9.13;1.92;;;;;;;;;;4939273;29;20047;-60
2023/01/06 14:10:55;;;;;;;1.17;1.08;;;;;;;;;;4939476;29;20044;-61
2023/01/06 14:13:37;;;;;;;1.20;1.10;;;;;;;;;;4942514;29;20047;-59
2023/01/06 14:16:04;;;;;;;0.70;0.70;;;;;;;;;;4943720;29;20062;-61
2023/01/06 14:18:33;;;;;;;12.93;7.25;;;;;;;;;;4944047;29;20075;-60
2023/01/06 14:21:02;;;;;;;1.70;1.60;;;;;;;;;;4943338;29;20099;-60
2023/01/06 14:23:28;;;;;;;2.25;0.90;;;;;;;;;;4939325;29;20058;-59
2023/01/06 14:25:55;;;;;;;1.67;1.27;;;;;;;;;;4939109;29;20106;-59
2023/01/06 14:28:24;;;;;;;1.33;1.00;;;;;;;;;;4939178;29;20073;-61
2023/01/06 14:30:51;;;;;;;2.17;1.10;;;;;;;;;;4938734;29;20035;-61
2023/01/06 14:33:37;;;;;;;4.35;1.67;;;;;;;;;;4939114;29;20048;-59
2023/01/06 14:36:12;;;;;;;1.95;1.30;;;;;;;;;;4937609;29;20061;-61
2023/01/06 14:38:50;;;;;;;0.75;0.75;;;;;;;;;;4938388;29;20456;-60
2023/01/06 14:41:21;;;;;;;4.57;1.23;;;;;;;;;;4938127;29;20094;-60
2023/01/06 14:44:00;;;;;;;2.45;1.05;;;;;;;;;;4938112;29;20039;-62
2023/01/06 14:46:38;;;;;;;1.85;0.80;;;;;;;;;;4936493;29;20051;-61
2023/01/06 14:49:05;;;;;;;1.00;0.90;;;;;;;;;;4938131;29;20102;-61
2023/01/06 14:51:33;;;;;;;5.68;1.15;;;;;;;;;;4937947;29;20047;-61
2023/01/06 14:54:19;;;;;;;7.40;4.47;;;;;;;;;;4938132;29;20051;-61
2023/01/06 14:56:53;;;;;;;2.15;1.40;;;;;;;;;;4929830;29;20081;-58
2023/01/06 14:59:21;;;;;;;1.85;1.10;;;;;;;;;;4937643;29;20048;-59
2023/01/06 15:02:20;;;;;;;4.20;2.38;;;;;;;;;;4937644;29;20055;-59
2023/01/06 15:04:53;;;;;;;1.38;1.27;;;;;;;;;;4925728;29;20479;-61
2023/01/06 15:07:20;;;;;;;2.33;1.30;;;;;;;;;;4937694;29;20040;-60
2023/01/06 15:09:48;;;;;;;4.95;2.55;;;;;;;;;;4937551;29;20059;-60
2023/01/06 15:12:28;;;;;;;4.55;2.10;;;;;;;;;;4936564;29;20052;-60